Time;durP1;ratioP1;P1;durP2;ratioP2;P2;SDS_P1;SDS_P2;PMS_P1;PMS_P2;Temp;Humidity;BMP_temperature;BMP_pressure;BME280_temperature;BME280_humidity;BME280_pressure;Samples;Min_cycle;Max_cycle;Signal;HPM_P1;HPM_P2
2023/02/07 00:00:38;;;;;;;;;;;;;;;4.86;100.00;101304.91;4979337;28;19972;-49
2023/02/07 00:03:03;;;;;;;;;;;;;;;5.19;100.00;101304.09;4980071;28;19965;-50
2023/02/07 00:05:28;;;;;;;;;;;;;;;3.91;100.00;101291.81;4980533;28;19918;-49
2023/02/07 00:07:54;;;;;;;;;;;;;;;4.85;100.00;101304.84;4979732;28;19930;-51
2023/02/07 00:10:19;;;;;;;;;;;;;;;5.18;100.00;101292.16;4979507;28;19928;-48
2023/02/07 00:12:44;;;;;;;;;;;;;;;5.43;100.00;101284.31;4979348;28;20649;-50
2023/02/07 00:15:09;;;;;;;;;;;;;;;5.11;100.00;101257.03;4978821;28;19922;-50
2023/02/07 00:17:35;;;;;;;;;;;;;;;4.69;100.00;101252.50;4979945;28;20710;-50
2023/02/07 00:20:00;;;;;;;;;;;;;;;4.76;100.00;101259.50;4979588;28;19918;-51
2023/02/07 00:22:25;;;;;;;;;;;;;;;5.41;100.00;101252.72;4979736;28;20290;-48
2023/02/07 00:24:51;;;;;;;;;;;;;;;5.12;100.00;101236.66;4980544;28;19940;-49
2023/02/07 00:27:16;;;;;;;;;;;;;;;4.95;100.00;101225.13;4983126;28;19956;-50
2023/02/07 00:29:41;;;;;;;;;;;;;;;5.15;100.00;101239.28;4982857;28;20065;-50
2023/02/07 00:32:07;;;;;;;;;;;;;;;5.50;100.00;101223.13;4983222;28;20005;-50
2023/02/07 00:34:34;;;;;;;;;;;;;;;5.20;100.00;101206.19;4981728;28;20013;-47
2023/02/07 00:37:00;;;;;;;;;;;;;;;6.10;100.00;101209.19;4983967;28;19922;-50
2023/02/07 00:39:25;;;;;;;;;;;;;;;5.62;100.00;101211.50;4982833;28;19913;-49
2023/02/07 00:41:51;;;;;;;;;;;;;;;4.92;100.00;101220.78;4982858;28;19957;-50
2023/02/07 00:44:16;;;;;;;;;;;;;;;5.81;100.00;101217.88;4981972;28;19914;-49
2023/02/07 00:46:41;;;;;;;;;;;;;;;4.84;100.00;101217.19;4983072;28;19922;-48
2023/02/07 00:49:06;;;;;;;;;;;;;;;5.17;100.00;101237.63;4988693;28;19917;-49
2023/02/07 00:51:32;;;;;;;;;;;;;;;4.47;100.00;101221.28;4982863;28;21168;-48
2023/02/07 00:53:57;;;;;;;;;;;;;;;3.64;100.00;101246.78;4981942;28;19917;-50
2023/02/07 00:56:23;;;;;;;;;;;;;;;3.80;100.00;101265.13;4982327;28;19922;-48
2023/02/07 00:58:48;;;;;;;;;;;;;;;4.15;100.00;101250.91;4982130;28;20690;-48
2023/02/07 01:01:14;;;;;;;;;;;;;;;3.25;100.00;101244.66;4982333;28;19921;-49
2023/02/07 01:03:39;;;;;;;;;;;;;;;3.40;100.00;101274.00;4981965;28;21112;-48
2023/02/07 01:06:05;;;;;;;;;;;;;;;4.10;100.00;101273.72;4982536;28;19914;-48
2023/02/07 01:08:30;;;;;;;;;;;;;;;3.63;100.00;101260.38;4982128;28;19945;-50
2023/02/07 01:10:55;;;;;;;;;;;;;;;3.03;100.00;101265.09;4981942;28;19921;-51
2023/02/07 01:13:20;;;;;;;;;;;;;;;3.34;100.00;101274.66;4981544;28;19918;-50
2023/02/07 01:15:46;;;;;;;;;;;;;;;3.30;100.00;101280.47;4981701;28;19992;-49
2023/02/07 01:18:12;;;;;;;;;;;;;;;3.66;100.00;101280.84;4981986;28;20295;-49
2023/02/07 01:20:37;;;;;;;;;;;;;;;4.25;100.00;101277.59;4982361;28;19960;-48
2023/02/07 01:23:02;;;;;;;;;;;;;;;4.18;100.00;101267.19;4981699;28;19917;-51
2023/02/07 01:25:28;;;;;;;;;;;;;;;5.48;100.00;101242.66;4980933;28;19961;-48
2023/02/07 01:27:53;;;;;;;;;;;;;;;5.23;100.00;101201.19;4980906;28;19971;-47
2023/02/07 01:30:18;;;;;;;;;;;;;;;5.42;100.00;101189.72;4981732;28;19918;-50
2023/02/07 01:32:43;;;;;;;;;;;;;;;5.08;100.00;101195.66;4981836;28;19933;-48
2023/02/07 01:35:09;;;;;;;;;;;;;;;5.37;100.00;101174.25;4981234;28;21012;-50
2023/02/07 01:37:34;;;;;;;;;;;;;;;5.17;100.00;101170.34;4981610;28;20405;-48
2023/02/07 01:39:59;;;;;;;;;;;;;;;4.83;100.00;101179.69;5008541;28;19957;-47
2023/02/07 01:42:25;;;;;;;;;;;;;;;5.15;100.00;101174.56;4983664;28;19921;-50
2023/02/07 01:44:50;;;;;;;;;;;;;;;5.63;100.00;101167.22;4987612;28;19921;-48
2023/02/07 01:47:17;;;;;;;;;;;;;;;5.73;100.00;101158.06;4982763;28;19924;-50
2023/02/07 01:49:42;;;;;;;;;;;;;;;5.80;100.00;101152.25;5017435;28;19922;-48
2023/02/07 01:52:09;;;;;;;;;;;;;;;5.68;100.00;101143.44;4981238;28;19988;-48
2023/02/07 01:54:35;;;;;;;;;;;;;;;5.55;100.00;101147.44;5019079;28;19926;-49
2023/02/07 01:57:01;;;;;;;;;;;;;;;5.10;100.00;101143.78;4981064;28;20630;-47
2023/02/07 01:59:26;;;;;;;;;;;;;;;5.28;100.00;101153.59;5013199;28;19965;-48
2023/02/07 02:01:51;;;;;;;;;;;;;;;5.42;100.00;101147.13;5021431;28;19949;-49
2023/02/07 02:04:16;;;;;;;;;;;;;;;5.20;100.00;101150.00;4980821;28;19944;-48
2023/02/07 02:06:42;;;;;;;;;;;;;;;5.11;100.00;101159.97;4980752;28;19918;-51
2023/02/07 02:09:08;;;;;;;;;;;;;;;5.47;100.00;101159.16;4981426;28;19922;-49
2023/02/07 02:11:40;;;;;;;;;;;;;;;5.54;100.00;101138.91;4980997;28;20483;-50
2023/02/07 02:14:23;;;;;;;;;;;;;;;5.44;100.00;101137.81;4980748;28;19917;-48
2023/02/07 02:16:53;;;;;;;;;;;;;;;5.39;100.00;101131.72;4981244;28;19922;-48
2023/02/07 02:19:24;;;;;;;;;;;;;;;5.42;100.00;101136.91;5022330;28;19928;-48
2023/02/07 02:21:49;;;;;;;;;;;;;;;5.12;100.00;101141.28;4980904;28;19920;-48
2023/02/07 02:24:14;;;;;;;;;;;;;;;4.95;100.00;101136.63;4980046;28;19918;-48
2023/02/07 02:26:40;;;;;;;;;;;;;;;5.31;100.00;101143.44;5007154;28;20036;-49
2023/02/07 02:29:06;;;;;;;;;;;;;;;5.23;100.00;101140.72;4983536;28;20028;-48
2023/02/07 02:31:37;;;;;;;;;;;;;;;5.32;100.00;101145.19;4980322;28;20013;-48
2023/02/07 02:34:17;;;;;;;;;;;;;;;5.51;100.00;101132.84;4979123;28;19997;-48
2023/02/07 02:36:55;;;;;;;;;;;;;;;5.52;100.00;101126.88;4986796;28;19922;-48
2023/02/07 02:39:31;;;;;;;;;;;;;;;5.27;100.00;101121.25;5026624;28;19975;-51
2023/02/07 02:41:58;;;;;;;;;;;;;;;4.30;100.00;101130.66;5016576;28;19945;-48
2023/02/07 02:44:30;;;;;;;;;;;;;;;4.74;100.00;101151.38;4998945;28;20887;-48
2023/02/07 02:46:56;;;;;;;;;;;;;;;4.39;100.00;101157.25;4982760;28;19991;-49
2023/02/07 02:49:21;;;;;;;;;;;;;;;4.07;100.00;101166.56;5014175;28;19961;-48
2023/02/07 02:51:48;;;;;;;;;;;;;;;4.92;100.00;101164.63;4979472;28;19930;-48
2023/02/07 02:54:27;;;;;;;;;;;;;;;4.79;100.00;101142.19;4977389;28;19941;-47
2023/02/07 02:57:05;;;;;;;;;;;;;;;4.22;100.00;101165.25;4984895;28;19975;-48
2023/02/07 02:59:52;;;;;;;;;;;;;;;4.26;100.00;101165.38;5012269;28;20307;-47
2023/02/07 03:02:33;;;;;;;;;;;;;;;4.78;100.00;101165.97;5015810;28;19925;-47
2023/02/07 03:05:17;;;;;;;;;;;;;;;4.62;100.00;101169.78;4979175;28;19922;-48
2023/02/07 03:08:00;;;;;;;;;;;;;;;5.13;100.00;101163.44;4983954;28;19957;-47
2023/02/07 03:10:38;;;;;;;;;;;;;;;5.38;100.00;101144.47;4981815;28;20500;-48
2023/02/07 03:13:07;;;;;;;;;;;;;;;5.03;100.00;101132.56;4983324;28;20468;-50
2023/02/07 03:15:42;;;;;;;;;;;;;;;4.45;100.00;101151.47;5018184;28;20032;-49
2023/02/07 03:18:16;;;;;;;;;;;;;;;4.50;100.00;101169.47;4979726;28;20587;-48
2023/02/07 03:20:42;;;;;;;;;;;;;;;4.77;100.00;101167.66;4983943;28;20572;-48
2023/02/07 03:23:08;;;;;;;;;;;;;;;5.08;100.00;101155.66;5002224;28;19945;-49
2023/02/07 03:25:33;;;;;;;;;;;;;;;5.07;100.00;101153.09;4979026;28;19949;-49
2023/02/07 03:27:58;;;;;;;;;;;;;;;5.15;100.00;101156.69;5015710;28;19922;-49
2023/02/07 03:30:25;;;;;;;;;;;;;;;5.03;100.00;101165.75;5001500;28;19972;-48
2023/02/07 03:32:51;;;;;;;;;;;;;;;5.05;100.00;101153.03;4979281;28;19921;-50
2023/02/07 03:35:37;;;;;;;;;;;;;;;4.94;100.00;101142.53;5011855;28;19918;-48
2023/02/07 03:38:02;;;;;;;;;;;;;;;5.16;100.00;101158.44;4988067;28;19918;-50
2023/02/07 03:40:28;;;;;;;;;;;;;;;5.01;100.00;101151.22;5024631;28;19972;-47
2023/02/07 03:43:12;;;;;;;;;;;;;;;5.17;100.00;101152.47;5012009;28;20543;-48
2023/02/07 03:45:37;;;;;;;;;;;;;;;5.11;100.00;101142.09;4978363;28;19918;-48
2023/02/07 03:48:03;;;;;;;;;;;;;;;5.08;100.00;101142.91;5018907;28;20355;-48
2023/02/07 03:50:28;;;;;;;;;;;;;;;5.16;100.00;101148.22;4979442;28;19922;-48
2023/02/07 03:52:53;;;;;;;;;;;;;;;5.26;100.00;101150.16;4979621;28;20304;-47
2023/02/07 03:55:18;;;;;;;;;;;;;;;5.17;100.00;101147.38;4979057;28;19981;-48
2023/02/07 03:57:44;;;;;;;;;;;;;;;5.21;100.00;101151.72;4982340;28;19941;-48
2023/02/07 04:00:10;;;;;;;;;;;;;;;5.13;100.00;101158.34;4984318;28;19929;-48
2023/02/07 04:02:35;;;;;;;;;;;;;;;5.06;100.00;101153.91;4983354;28;19918;-51
2023/02/07 04:05:00;;;;;;;;;;;;;;;5.17;100.00;101149.91;4984429;28;19933;-47
2023/02/07 04:07:26;;;;;;;;;;;;;;;4.97;100.00;101155.41;5008324;28;19955;-47
2023/02/07 04:09:51;;;;;;;;;;;;;;;4.45;100.00;101154.03;4983708;28;20051;-48
2023/02/07 04:12:16;;;;;;;;;;;;;;;4.45;100.00;101156.59;4982818;28;19949;-47
2023/02/07 04:14:41;;;;;;;;;;;;;;;3.78;100.00;101166.53;4982775;28;19928;-48
2023/02/07 04:17:07;;;;;;;;;;;;;;;3.35;100.00;101187.25;4983198;28;19956;-47
2023/02/07 04:19:32;;;;;;;;;;;;;;;2.96;100.00;101214.78;4982764;28;19934;-49
2023/02/07 04:21:57;;;;;;;;;;;;;;;3.19;100.00;101226.63;4982375;28;19975;-47
2023/02/07 04:24:22;;;;;;;;;;;;;;;3.48;100.00;101217.41;4981569;28;19972;-47
2023/02/07 04:26:48;;;;;;;;;;;;;;;3.45;100.00;101208.81;4981192;28;19990;-48
2023/02/07 04:29:13;;;;;;;;;;;;;;;4.11;100.00;101206.63;4982486;28;20383;-48
2023/02/07 04:31:39;;;;;;;;;;;;;;;3.26;100.00;101203.13;4982028;28;20338;-49
2023/02/07 04:34:04;;;;;;;;;;;;;;;3.43;100.00;101218.09;4981691;28;21216;-48
2023/02/07 04:36:30;;;;;;;;;;;;;;;3.88;100.00;101220.38;4982511;28;20929;-48
2023/02/07 04:38:55;;;;;;;;;;;;;;;2.50;100.00;101219.13;4982440;28;20366;-48
2023/02/07 04:41:20;;;;;;;;;;;;;;;2.90;100.00;101246.88;4982549;28;20000;-48
2023/02/07 04:43:45;;;;;;;;;;;;;;;2.62;100.00;101257.75;4981647;28;20021;-50
2023/02/07 04:46:11;;;;;;;;;;;;;;;4.19;100.00;101248.50;4982482;28;19932;-48
2023/02/07 04:48:36;;;;;;;;;;;;;;;4.16;100.00;101219.50;4981422;28;19921;-48
2023/02/07 04:51:02;;;;;;;;;;;;;;;3.20;100.00;101215.63;4982628;28;20036;-47
2023/02/07 04:53:27;;;;;;;;;;;;;;;3.22;100.00;101224.19;4981763;28;19921;-48
2023/02/07 04:55:52;;;;;;;;;;;;;;;3.37;100.00;101233.16;4981580;28;19953;-48
2023/02/07 04:58:18;;;;;;;;;;;;;;;3.00;100.00;101239.56;5019989;28;19926;-48
2023/02/07 05:00:43;;;;;;;;;;;;;;;3.78;100.00;101230.25;4982170;28;19972;-48
2023/02/07 05:03:09;;;;;;;;;;;;;;;2.54;100.00;101232.84;4982229;28;19922;-47
2023/02/07 05:05:36;;;;;;;;;;;;;;;3.88;100.00;101239.06;4980971;28;19921;-48
2023/02/07 05:08:02;;;;;;;;;;;;;;;3.43;100.00;101239.31;4980854;28;19920;-48
2023/02/07 05:10:27;;;;;;;;;;;;;;;3.52;100.00;101231.13;4981254;28;19921;-47
2023/02/07 05:12:52;;;;;;;;;;;;;;;3.78;100.00;101237.91;4981123;28;20016;-48
2023/02/07 05:15:17;;;;;;;;;;;;;;;3.50;100.00;101230.19;4980757;28;19957;-47
2023/02/07 05:17:43;;;;;;;;;;;;;;;3.02;100.00;101226.06;4981867;28;19956;-48
2023/02/07 05:20:08;;;;;;;;;;;;;;;2.46;100.00;101233.41;4981750;28;19977;-49
2023/02/07 05:22:34;;;;;;;;;;;;;;;3.01;100.00;101247.25;4978547;28;19968;-48
2023/02/07 05:24:59;;;;;;;;;;;;;;;2.40;100.00;101262.84;4979787;28;19921;-48
2023/02/07 05:27:24;;;;;;;;;;;;;;;2.73;100.00;101273.38;4980711;28;19928;-48
2023/02/07 05:29:49;;;;;;;;;;;;;;;2.77;100.00;101265.03;4981290;28;20021;-47
2023/02/07 05:34:59;;;;;;;;;;;;;;;3.59;100.00;101258.53;4981301;28;20183;-47
2023/02/07 05:37:24;;;;;;;;;;;;;;;2.56;100.00;101251.56;4981453;28;20367;-47
2023/02/07 05:39:49;;;;;;;;;;;;;;;3.17;100.00;101257.94;4981679;28;19922;-47
2023/02/07 05:42:14;;;;;;;;;;;;;;;2.78;100.00;101256.59;4981594;28;19925;-50
2023/02/07 05:44:39;;;;;;;;;;;;;;;2.92;100.00;101265.59;4980370;28;20378;-48
2023/02/07 05:47:05;;;;;;;;;;;;;;;2.64;100.00;101267.94;4981381;28;20322;-48
2023/02/07 05:49:30;;;;;;;;;;;;;;;2.76;100.00;101275.16;4981483;28;19921;-48
2023/02/07 05:51:55;;;;;;;;;;;;;;;2.80;100.00;101274.47;4981346;28;20812;-48
2023/02/07 05:54:21;;;;;;;;;;;;;;;2.91;100.00;101279.13;4980529;28;19918;-47
2023/02/07 05:56:46;;;;;;;;;;;;;;;2.93;100.00;101282.59;4981021;28;19918;-46
2023/02/07 05:59:11;;;;;;;;;;;;;;;3.08;100.00;101283.94;4981242;28;19928;-47
2023/02/07 06:01:36;;;;;;;;;;;;;;;2.48;100.00;101277.56;4981397;28;19956;-48
2023/02/07 06:04:01;;;;;;;;;;;;;;;2.69;100.00;101286.78;4980658;28;19921;-48
2023/02/07 06:06:27;;;;;;;;;;;;;;;1.60;100.00;101285.97;4980666;28;19962;-47
2023/02/07 06:08:52;;;;;;;;;;;;;;;2.14;100.00;101299.97;4980877;28;19925;-48
2023/02/07 06:11:17;;;;;;;;;;;;;;;2.65;100.00;101290.06;4981162;28;20478;-48
2023/02/07 06:13:42;;;;;;;;;;;;;;;2.67;100.00;101288.44;4979958;28;19929;-49
2023/02/07 06:16:09;;;;;;;;;;;;;;;2.99;100.00;101286.16;4976795;28;19925;-49
2023/02/07 06:18:34;;;;;;;;;;;;;;;1.98;100.00;101289.19;4980749;28;19922;-47
2023/02/07 06:21:00;;;;;;;;;;;;;;;3.05;100.00;101286.38;4980807;28;20028;-47
2023/02/07 06:23:25;;;;;;;;;;;;;;;2.84;100.00;101277.19;4979390;28;20017;-49
2023/02/07 06:25:50;;;;;;;;;;;;;;;3.72;100.00;101275.94;4977934;28;19918;-47
2023/02/07 06:28:15;;;;;;;;;;;;;;;4.17;100.00;101247.63;4979155;28;20113;-47
2023/02/07 06:30:41;;;;;;;;;;;;;;;3.94;100.00;101233.28;4980495;28;20346;-48
2023/02/07 06:33:06;;;;;;;;;;;;;;;4.05;100.00;101224.28;4980783;28;19922;-47
2023/02/07 06:35:31;;;;;;;;;;;;;;;3.74;100.00;101220.81;4979728;28;19960;-46
2023/02/07 06:37:56;;;;;;;;;;;;;;;4.31;100.00;101206.31;4980797;28;19914;-46
2023/02/07 06:40:21;;;;;;;;;;;;;;;4.31;100.00;101204.66;4980160;28;19918;-46
2023/02/07 06:42:47;;;;;;;;;;;;;;;4.38;100.00;101191.25;4980529;28;19918;-47
2023/02/07 06:45:12;;;;;;;;;;;;;;;3.42;100.00;101208.69;4980176;28;19928;-47
2023/02/07 06:47:37;;;;;;;;;;;;;;;2.54;100.00;101230.28;4977938;28;19928;-46
2023/02/07 06:50:03;;;;;;;;;;;;;;;1.80;100.00;101268.13;4980640;28;19924;-46
2023/02/07 06:52:28;;;;;;;;;;;;;;;2.01;100.00;101286.78;4978577;28;20399;-47
2023/02/07 06:54:54;;;;;;;;;;;;;;;2.66;100.00;101304.50;4979078;28;20397;-46
2023/02/07 06:57:19;;;;;;;;;;;;;;;3.68;100.00;101302.13;4980002;28;19926;-46
2023/02/07 06:59:44;;;;;;;;;;;;;;;3.97;100.00;101285.25;4980112;28;19933;-46
2023/02/07 07:02:10;;;;;;;;;;;;;;;3.95;100.00;101260.53;4980107;28;20367;-45
2023/02/07 07:04:35;;;;;;;;;;;;;;;3.10;100.00;101260.28;5025695;28;20441;-46
2023/02/07 07:07:01;;;;;;;;;;;;;;;3.05;100.00;101279.63;4980023;28;19925;-46
2023/02/07 07:09:26;;;;;;;;;;;;;;;1.91;100.00;101287.22;4979747;28;19927;-46
2023/02/07 07:11:51;;;;;;;;;;;;;;;2.06;100.00;101315.78;4980086;28;20302;-47
2023/02/07 07:14:16;;;;;;;;;;;;;;;2.51;100.00;101333.63;4985311;28;20044;-46
2023/02/07 07:16:42;;;;;;;;;;;;;;;2.66;100.00;101333.34;4980777;28;19974;-46
2023/02/07 07:19:07;;;;;;;;;;;;;;;2.88;100.00;101324.84;4980143;28;20054;-46
2023/02/07 07:21:32;;;;;;;;;;;;;;;2.60;100.00;101324.59;4977995;28;19918;-46
2023/02/07 07:23:57;;;;;;;;;;;;;;;2.59;100.00;101322.88;4978707;28;19918;-46
2023/02/07 07:26:23;;;;;;;;;;;;;;;3.32;100.00;101312.81;4977489;28;19918;-46
2023/02/07 07:28:48;;;;;;;;;;;;;;;3.27;100.00;101304.16;4979441;28;19928;-47
2023/02/07 07:31:14;;;;;;;;;;;;;;;3.38;100.00;101294.34;4979912;28;19921;-46
2023/02/07 07:33:39;;;;;;;;;;;;;;;3.69;100.00;101293.66;4978557;28;19928;-45
2023/02/07 07:36:04;;;;;;;;;;;;;;;4.28;100.00;101275.13;4979164;28;19965;-46
2023/02/07 07:38:30;;;;;;;;;;;;;;;5.11;100.00;101272.34;4979803;28;19925;-46
2023/02/07 07:40:55;;;;;;;;;;;;;;;5.06;100.00;101258.59;4979576;28;19969;-46
2023/02/07 07:43:20;;;;;;;;;;;;;;;5.20;100.00;101249.59;4979633;28;20001;-46
2023/02/07 07:45:50;;;;;;;;;;;;;;;5.65;100.00;101241.38;4978638;28;19971;-48
2023/02/07 07:48:15;;;;;;;;;;;;;;;5.63;100.00;101227.69;4977927;28;20001;-46
2023/02/07 07:50:40;;;;;;;;;;;;;;;5.17;100.00;101212.09;4979840;28;19933;-46
2023/02/07 07:53:05;;;;;;;;;;;;;;;4.85;100.00;101228.25;4979254;28;19925;-47
2023/02/07 07:55:31;;;;;;;;;;;;;;;5.10;100.00;101232.34;4978739;28;20389;-47
2023/02/07 07:57:56;;;;;;;;;;;;;;;5.20;100.00;101231.72;4979116;28;20328;-47
2023/02/07 08:00:21;;;;;;;;;;;;;;;5.43;100.00;101225.53;4979376;28;19984;-47
2023/02/07 08:02:46;;;;;;;;;;;;;;;5.62;100.00;101225.97;4979069;28;19917;-47
2023/02/07 08:05:12;;;;;;;;;;;;;;;5.76;100.00;101234.81;4978773;28;19970;-47
2023/02/07 08:07:37;;;;;;;;;;;;;;;5.84;100.00;101227.34;4979244;28;19917;-46
2023/02/07 08:10:04;;;;;;;;;;;;;;;5.30;100.00;101233.72;4979203;28;20688;-47
2023/02/07 08:12:29;;;;;;;;;;;;;;;4.96;100.00;101253.25;4979145;28;19984;-47
2023/02/07 08:14:55;;;;;;;;;;;;;;;4.05;100.00;101261.66;4978538;28;19921;-47
2023/02/07 08:17:20;;;;;;;;;;;;;;;3.93;100.00;101292.75;4979734;28;19928;-48
2023/02/07 08:19:45;;;;;;;;;;;;;;;4.28;100.00;101300.63;4979172;28;19928;-48
2023/02/07 08:22:13;;;;;;;;;;;;;;;3.87;100.00;101305.28;4980167;28;20497;-49
2023/02/07 08:24:38;;;;;;;;;;;;;;;3.58;100.00;101330.69;4978185;28;19928;-48
2023/02/07 08:27:03;;;;;;;;;;;;;;;4.46;100.00;101341.13;4976696;28;19922;-46
2023/02/07 08:29:28;;;;;;;;;;;;;;;5.23;100.00;101323.78;4979305;28;19969;-47
2023/02/07 08:31:54;;;;;;;;;;;;;;;4.94;100.00;101300.84;4979345;28;20020;-48
2023/02/07 08:34:23;;;;;;;;;;;;;;;4.91;100.00;101305.88;4977901;28;19918;-47
2023/02/07 08:36:48;;;;;;;;;;;;;;;5.19;100.00;101307.50;4978501;28;19977;-46
2023/02/07 08:39:13;;;;;;;;;;;;;;;6.22;100.00;101284.50;4979142;28;19956;-48
2023/02/07 08:41:38;;;;;;;;;;;;;;;6.23;100.00;101277.72;4982627;28;19979;-47
2023/02/07 08:44:04;;;;;;;;;;;;;;;6.08;100.00;101275.66;4978138;28;19957;-46
2023/02/07 08:46:29;;;;;;;;;;;;;;;4.88;100.00;101270.06;4979155;28;19921;-46
2023/02/07 08:48:54;;;;;;;;;;;;;;;6.18;100.00;101285.28;4979914;28;20020;-46
2023/02/07 08:51:20;;;;;;;;;;;;;;;6.11;100.00;101277.41;4981597;28;20030;-46
2023/02/07 08:53:45;;;;;;;;;;;;;;;5.44;100.00;101278.34;4983878;28;19921;-46
2023/02/07 08:56:10;;;;;;;;;;;;;;;5.81;100.00;101278.41;4982324;28;19973;-46
2023/02/07 08:58:36;;;;;;;;;;;;;;;6.03;100.00;101287.50;4981810;28;19918;-48
2023/02/07 09:01:01;;;;;;;;;;;;;;;6.34;100.00;101276.25;4981935;28;19929;-47
2023/02/07 09:03:26;;;;;;;;;;;;;;;5.76;100.00;101269.75;4980515;28;19984;-46
2023/02/07 09:05:56;;;;;;;;;;;;;;;5.55;100.00;101276.06;4980573;28;19922;-46
2023/02/07 09:08:21;;;;;;;;;;;;;;;5.40;100.00;101285.91;4975063;28;20394;-47
2023/02/07 09:10:46;;;;;;;;;;;;;;;6.55;100.00;101275.00;4980501;28;19929;-48
2023/02/07 09:13:11;;;;;;;;;;;;;;;5.00;100.00;101277.19;4985315;28;20028;-47
2023/02/07 09:15:37;;;;;;;;;;;;;;;4.88;100.00;101297.25;4980050;28;20302;-48
2023/02/07 09:18:02;;;;;;;;;;;;;;;5.23;100.00;101293.13;4980439;28;19925;-47
2023/02/07 09:20:27;;;;;;;;;;;;;;;5.57;100.00;101300.00;4980579;28;19977;-47
2023/02/07 09:25:37;;;;;;;;;;;;;;;5.81;100.00;101281.81;4980519;28;20354;-48
2023/02/07 09:28:02;;;;;;;;;;;;;;;5.01;100.00;101292.53;4981989;28;19957;-47
2023/02/07 09:30:27;;;;;;;;;;;;;;;5.06;100.00;101289.25;4982074;28;20421;-47
2023/02/07 09:32:53;;;;;;;;;;;;;;;6.00;100.00;101274.63;5003489;28;19925;-48
2023/02/07 09:35:18;;;;;;;;;;;;;;;6.98;100.00;101240.84;4980764;28;19918;-48
2023/02/07 09:37:43;;;;;;;;;;;;;;;7.35;100.00;101220.16;4980718;28;19918;-49
2023/02/07 09:40:10;;;;;;;;;;;;;;;6.45;100.00;101208.25;4976958;28;20000;-48
2023/02/07 09:42:42;;;;;;;;;;;;;;;7.12;100.00;101197.53;4980650;28;19968;-48
2023/02/07 09:45:09;;;;;;;;;;;;;;;6.38;100.00;101201.25;5014960;28;19967;-48
2023/02/07 09:47:35;;;;;;;;;;;;;;;7.50;100.00;101205.88;5022267;28;20410;-48
2023/02/07 09:50:02;;;;;;;;;;;;;;;5.66;100.00;101192.84;4976558;28;20482;-47
2023/02/07 09:52:46;;;;;;;;;;;;;;;6.95;100.00;101204.91;5020377;28;19922;-49
2023/02/07 09:55:17;;;;;;;;;;;;;;;8.71;100.00;101195.53;4981005;28;20032;-48
2023/02/07 09:57:46;;;;;;;;;;;;;;;8.61;100.00;101176.59;5026479;28;20004;-48
2023/02/07 10:00:19;;;;;;;;;;;;;;;7.64;100.00;101184.69;5015438;28;19929;-50
2023/02/07 10:02:50;;;;;;;;;;;;;;;8.00;100.00;101196.34;5007037;28;19928;-47
2023/02/07 10:05:20;;;;;;;;;;;;;;;7.71;100.00;101158.31;5020197;28;20426;-49
2023/02/07 10:07:46;;;;;;;;;;;;;;;7.64;100.00;101166.75;4983024;28;19918;-48
2023/02/07 10:10:31;;;;;;;;;;;;;;;6.62;100.00;101194.91;4979673;28;20291;-48
2023/02/07 10:13:12;;;;;;;;;;;;;;;7.45;100.00;101174.16;5015181;28;19925;-48
2023/02/07 10:15:43;;;;;;;;;;;;;;;7.96;100.00;101162.09;4979143;28;19939;-49
2023/02/07 10:18:08;;;;;;;;;;;;;;;8.89;100.00;101152.03;4979821;28;20670;-48
2023/02/07 10:20:40;;;;;;;;;;;;;;;8.85;100.00;101126.28;4980295;28;19926;-49
2023/02/07 10:23:09;;;;;;;;;;;;;;;9.77;100.00;101122.69;4980014;28;19914;-50
2023/02/07 10:25:34;;;;;;;;;;;;;;;7.86;100.00;101130.28;5014097;28;19961;-49
2023/02/07 10:28:03;;;;;;;;;;;;;;;8.79;100.00;101140.81;4980478;28;19964;-50
2023/02/07 10:30:34;;;;;;;;;;;;;;;9.36;100.00;101100.16;5020179;28;19961;-51
2023/02/07 10:33:16;;;;;;;;;;;;;;;8.18;100.00;101124.72;5014707;28;19922;-48
2023/02/07 10:35:42;;;;;;;;;;;;;;;8.16;100.00;101136.66;4979658;28;20606;-49
2023/02/07 10:38:21;;;;;;;;;;;;;;;8.08;100.00;101143.41;5016655;28;19917;-50
2023/02/07 10:40:49;;;;;;;;;;;;;;;9.32;100.00;101110.41;5027596;28;19921;-47
2023/02/07 10:43:23;;;;;;;;;;;;;;;8.63;100.00;101108.13;4980569;28;19949;-48
2023/02/07 10:45:48;;;;;;;;;;;;;;;7.97;100.00;101128.72;4998105;28;20092;-50
2023/02/07 10:48:14;;;;;;;;;;;;;;;8.71;100.00;101152.75;5022776;28;20004;-47
2023/02/07 10:50:39;;;;;;;;;;;;;;;8.37;100.00;101142.06;4981600;28;19949;-47
2023/02/07 10:53:04;;;;;;;;;;;;;;;7.90;100.00;101155.16;4981058;28;19952;-49
2023/02/07 10:55:47;;;;;;;;;;;;;;;9.24;100.00;101135.19;4980823;28;20028;-47
2023/02/07 10:58:16;;;;;;;;;;;;;;;7.54;100.00;101140.97;5012784;28;19968;-48
2023/02/07 11:00:42;;;;;;;;;;;;;;;8.62;100.00;101147.50;4980660;28;20415;-48
2023/02/07 11:03:13;;;;;;;;;;;;;;;8.88;100.00;101190.56;5019410;28;19929;-49
2023/02/07 11:05:40;;;;;;;;;;;;;;;7.73;100.00;101172.00;5017674;28;19921;-48
2023/02/07 11:08:05;;;;;;;;;;;;;;;8.08;100.00;101174.22;5023753;28;20052;-48
2023/02/07 11:10:40;;;;;;;;;;;;;;;8.09;100.00;101150.25;4979691;28;20387;-48
2023/02/07 11:13:19;;;;;;;;;;;;;;;8.22;100.00;101146.16;4994827;28;19953;-48
2023/02/07 11:15:53;;;;;;;;;;;;;;;9.66;100.00;101123.50;4979224;28;19938;-48
2023/02/07 11:18:26;;;;;;;;;;;;;;;8.59;100.00;101121.78;5012679;28;19933;-49
2023/02/07 11:20:52;;;;;;;;;;;;;;;8.08;100.00;101128.03;5022559;28;20309;-49
2023/02/07 11:23:17;;;;;;;;;;;;;;;8.33;100.00;101130.03;5018722;28;19917;-47
2023/02/07 11:25:43;;;;;;;;;;;;;;;9.50;100.00;101138.81;4977463;28;19949;-48
2023/02/07 11:28:38;;;;;;;;;;;;;;;8.56;100.00;101140.59;5023506;28;20016;-49
2023/02/07 11:31:07;;;;;;;;;;;;;;;8.49;100.00;101166.19;4975066;28;19933;-49
2023/02/07 11:33:33;;;;;;;;;;;;;;;9.02;100.00;101165.00;4980105;28;19945;-48
2023/02/07 11:36:05;;;;;;;;;;;;;;;7.81;100.00;101170.41;5026104;28;19959;-51
2023/02/07 11:38:30;;;;;;;;;;;;;;;8.90;100.00;101173.47;4975187;28;19984;-48
2023/02/07 11:41:02;;;;;;;;;;;;;;;7.21;100.00;101217.34;4979575;28;19913;-48
2023/02/07 11:43:28;;;;;;;;;;;;;;;6.58;100.00;101234.09;4977431;28;19921;-49
2023/02/07 11:45:54;;;;;;;;;;;;;;;8.32;100.00;101214.72;4983594;28;20256;-48
2023/02/07 11:48:20;;;;;;;;;;;;;;;7.97;100.00;101198.00;4978036;28;19921;-48
2023/02/07 11:50:47;;;;;;;;;;;;;;;7.68;100.00;101194.16;4980026;28;19967;-50
2023/02/07 11:53:23;;;;;;;;;;;;;;;7.10;100.00;101215.44;4979737;28;20421;-48
2023/02/07 11:55:49;;;;;;;;;;;;;;;9.13;100.00;101187.38;5021549;28;19921;-51
2023/02/07 11:58:19;;;;;;;;;;;;;;;9.17;100.00;101173.72;4992533;28;19917;-51
2023/02/07 12:00:44;;;;;;;;;;;;;;;8.02;100.00;101164.72;4980595;28;19926;-51
2023/02/07 12:03:25;;;;;;;;;;;;;;;8.02;100.00;101169.00;5011657;28;19922;-48
2023/02/07 12:05:52;;;;;;;;;;;;;;;8.42;100.00;101192.66;5005436;28;20600;-49
2023/02/07 12:08:18;;;;;;;;;;;;;;;8.15;100.00;101176.88;5022157;28;19943;-52
2023/02/07 12:10:44;;;;;;;;;;;;;;;9.02;100.00;101144.47;5012107;28;19928;-48
2023/02/07 12:13:10;;;;;;;;;;;;;;;8.97;100.00;101152.13;4977764;28;20677;-49
2023/02/07 12:15:38;;;;;;;;;;;;;;;10.59;100.00;101102.44;4978624;28;20000;-50
2023/02/07 12:18:06;;;;;;;;;;;;;;;9.73;100.00;101081.50;5016494;28;19924;-49
2023/02/07 12:20:36;;;;;;;;;;;;;;;9.08;100.00;101093.97;5015202;28;19918;-49
2023/02/07 12:23:01;;;;;;;;;;;;;;;10.28;100.00;101081.69;5006361;28;20389;-49
2023/02/07 12:25:28;;;;;;;;;;;;;;;9.68;100.00;101084.06;4981648;28;19917;-51
2023/02/07 12:27:55;;;;;;;;;;;;;;;9.47;100.00;101082.22;5021728;28;19921;-49
2023/02/07 12:30:20;;;;;;;;;;;;;;;9.12;100.00;101088.00;5020449;28;20841;-50
2023/02/07 12:32:54;;;;;;;;;;;;;;;10.44;100.00;101052.56;4982399;28;19921;-52
2023/02/07 12:35:19;;;;;;;;;;;;;;;9.69;100.00;101074.63;5020585;28;19925;-50
2023/02/07 12:37:51;;;;;;;;;;;;;;;9.64;100.00;101061.72;4981033;28;19918;-51
2023/02/07 12:40:16;;;;;;;;;;;;;;;8.85;100.00;101092.88;4987081;28;20395;-50